Time;durP1;ratioP1;P1;durP2;ratioP2;P2;SDS_P1;SDS_P2;PMS_P1;PMS_P2;Temp;Humidity;BMP_temperature;BMP_pressure;BME280_temperature;BME280_humidity;BME280_pressure;Samples;Min_cycle;Max_cycle;Signal;HPM_P1;HPM_P2
2022/05/27 00:01:29;;;;;;;23.40;4.93;;;14.20;99.90;;;;;;4937625;28;20057;-73
2022/05/27 00:03:56;;;;;;;26.17;5.78;;;14.20;99.90;;;;;;4956968;28;20050;-72
2022/05/27 00:06:23;;;;;;;26.85;5.32;;;14.10;99.90;;;;;;4938553;28;20118;-72
2022/05/27 00:08:49;;;;;;;18.50;4.53;;;14.10;99.90;;;;;;4953260;28;20062;-73
2022/05/27 00:11:14;;;;;;;21.00;4.25;;;14.10;99.90;;;;;;4937194;28;20046;-73
2022/05/27 00:13:41;;;;;;;27.33;5.32;;;14.10;99.90;;;;;;4932210;28;20134;-72
2022/05/27 00:16:08;;;;;;;24.85;4.65;;;14.10;99.90;;;;;;4970570;28;20047;-73
2022/05/27 00:18:34;;;;;;;19.80;4.43;;;14.00;99.90;;;;;;4938006;28;20438;-73
2022/05/27 00:21:00;;;;;;;20.65;4.20;;;14.00;99.90;;;;;;4954484;28;20046;-73
2022/05/27 00:23:29;;;;;;;18.65;3.95;;;13.90;99.90;;;;;;4934381;28;20047;-71
2022/05/27 00:25:55;;;;;;;22.35;4.32;;;13.90;99.90;;;;;;4930404;28;20102;-71
2022/05/27 00:28:21;;;;;;;21.42;3.85;;;13.80;99.90;;;;;;4951587;28;20066;-71
2022/05/27 00:30:47;;;;;;;25.60;4.32;;;13.80;99.90;;;;;;4952580;28;20603;-71
2022/05/27 00:33:13;;;;;;;16.73;4.50;;;13.80;99.90;;;;;;4958624;28;20094;-71
2022/05/27 00:35:39;;;;;;;19.38;3.97;;;13.80;99.90;;;;;;4953790;28;20587;-71
2022/05/27 00:38:05;;;;;;;23.02;3.50;;;13.70;99.90;;;;;;4958014;28;20043;-72
2022/05/27 00:40:38;;;;;;;21.25;4.40;;;13.70;99.90;;;;;;4956406;28;20114;-72
2022/05/27 00:43:04;;;;;;;22.20;3.45;;;13.60;99.90;;;;;;4955659;28;20043;-71
2022/05/27 00:45:34;;;;;;;13.00;3.42;;;13.60;99.90;;;;;;4953364;28;20046;-71
2022/05/27 00:48:01;;;;;;;28.05;4.18;;;13.60;99.90;;;;;;4953388;28;20050;-71
2022/05/27 00:50:35;;;;;;;16.25;3.05;;;13.50;99.90;;;;;;4956301;28;20058;-70
2022/05/27 00:53:03;;;;;;;18.38;4.13;;;13.50;99.90;;;;;;4957300;28;20050;-71
2022/05/27 00:55:34;;;;;;;18.42;3.45;;;13.40;99.90;;;;;;4957543;28;20062;-71
2022/05/27 00:58:12;;;;;;;18.83;3.97;;;13.40;99.90;;;;;;4956657;28;20051;-71
2022/05/27 01:00:39;;;;;;;19.83;3.70;;;13.30;99.90;;;;;;4971253;28;20055;-71
2022/05/27 01:03:07;;;;;;;17.92;3.88;;;13.40;99.90;;;;;;4955706;28;20046;-71
2022/05/27 01:05:33;;;;;;;24.95;4.68;;;13.30;99.90;;;;;;4972749;28;20043;-71
2022/05/27 01:08:03;;;;;;;20.77;4.10;;;13.30;99.90;;;;;;4959251;28;20169;-71
2022/05/27 01:10:38;;;;;;;29.17;4.68;;;13.30;99.90;;;;;;4934869;28;20332;-71
2022/05/27 01:13:24;;;;;;;20.73;4.82;;;13.20;99.90;;;;;;4957283;28;20050;-71
2022/05/27 01:16:13;;;;;;;25.50;4.10;;;13.20;99.90;;;;;;4955705;28;20125;-72
2022/05/27 01:22:17;;;;;;;21.23;3.65;;;13.10;99.90;;;;;;4962168;28;20110;-71
2022/05/27 01:25:05;;;;;;;21.08;3.30;;;13.10;99.90;;;;;;4941694;28;20054;-72
2022/05/27 01:27:59;;;;;;;22.50;3.55;;;13.10;99.90;;;;;;4960304;28;20054;-72
2022/05/27 01:30:32;;;;;;;16.13;3.85;;;13.00;99.90;;;;;;4958703;28;20050;-71
2022/05/27 01:33:31;;;;;;;23.00;4.57;;;12.90;99.90;;;;;;4960683;28;20113;-72
2022/05/27 01:36:32;;;;;;;20.30;4.05;;;12.90;99.90;;;;;;4963839;28;20039;-71
2022/05/27 01:39:09;;;;;;;22.38;4.25;;;12.90;99.90;;;;;;4962246;28;20432;-71
2022/05/27 01:42:25;;;;;;;19.83;3.20;;;12.80;99.90;;;;;;4946057;28;20053;-70
2022/05/27 01:45:03;;;;;;;25.20;3.75;;;12.70;99.90;;;;;;4966562;28;20054;-70
2022/05/27 01:47:41;;;;;;;18.02;4.43;;;12.70;99.90;;;;;;4977345;28;20074;-71
2022/05/27 01:50:31;;;;;;;17.15;3.20;;;12.60;99.90;;;;;;4975720;28;20054;-71
2022/05/27 01:53:05;;;;;;;20.77;3.75;;;12.60;99.90;;;;;;4962578;28;20043;-71
2022/05/27 01:55:55;;;;;;;19.35;3.17;;;12.50;99.90;;;;;;4963060;28;20540;-71
2022/05/27 01:58:36;;;;;;;14.25;3.33;;;12.50;99.90;;;;;;4945727;28;20109;-71
2022/05/27 02:01:05;;;;;;;18.52;3.15;;;12.50;99.90;;;;;;4978928;28;20133;-71
2022/05/27 02:03:42;;;;;;;22.77;3.25;;;12.40;99.90;;;;;;4979218;28;20093;-72
2022/05/27 02:06:13;;;;;;;16.90;2.83;;;12.40;99.90;;;;;;4949526;28;20042;-71
2022/05/27 02:08:58;;;;;;;13.90;3.20;;;12.30;99.90;;;;;;4967315;28;20039;-71
2022/05/27 02:11:24;;;;;;;15.40;2.83;;;12.20;99.90;;;;;;4963799;28;20043;-71
2022/05/27 02:13:54;;;;;;;21.60;3.20;;;12.20;99.90;;;;;;4963005;28;20035;-71
2022/05/27 02:16:52;;;;;;;9.85;2.50;;;12.20;99.90;;;;;;4966199;28;20062;-71
2022/05/27 02:19:30;;;;;;;20.55;2.75;;;12.10;99.90;;;;;;4967013;28;20057;-71
2022/05/27 02:22:14;;;;;;;15.02;2.95;;;12.10;99.90;;;;;;4951508;28;20046;-70
2022/05/27 02:24:45;;;;;;;10.55;3.03;;;12.00;99.90;;;;;;4963763;28;20412;-70
2022/05/27 02:27:17;;;;;;;18.73;2.53;;;12.10;99.90;;;;;;4981110;28;20047;-71
2022/05/27 02:29:46;;;;;;;20.30;2.67;;;12.00;99.90;;;;;;4967634;28;20054;-70
2022/05/27 02:32:27;;;;;;;12.18;2.45;;;11.90;99.90;;;;;;4966807;28;20054;-71
2022/05/27 02:35:10;;;;;;;14.43;2.50;;;11.90;99.90;;;;;;4966904;28;20082;-69
2022/05/27 02:37:46;;;;;;;12.55;2.17;;;11.80;99.90;;;;;;4967116;28;20042;-71
2022/05/27 02:40:24;;;;;;;12.60;2.53;;;11.80;99.90;;;;;;4950612;28;20214;-71
2022/05/27 02:43:20;;;;;;;14.75;2.70;;;11.80;99.90;;;;;;4996353;28;20568;-71
2022/05/27 02:46:02;;;;;;;17.60;2.97;;;11.80;99.90;;;;;;4966679;28;20043;-69
2022/05/27 02:48:51;;;;;;;15.88;2.65;;;11.70;99.90;;;;;;4933360;28;20058;-71
2022/05/27 02:51:55;;;;;;;13.27;2.92;;;11.70;99.90;;;;;;4951059;28;20039;-70
2022/05/27 02:54:39;;;;;;;12.52;2.75;;;11.60;99.90;;;;;;4965085;28;20057;-71
2022/05/27 02:57:12;;;;;;;13.07;2.80;;;11.60;99.90;;;;;;4978576;28;20043;-71
2022/05/27 02:59:40;;;;;;;18.30;3.33;;;11.50;99.90;;;;;;4965329;28;20129;-71
2022/05/27 03:02:15;;;;;;;14.10;2.60;;;11.50;99.90;;;;;;4979566;28;20038;-70
2022/05/27 03:04:46;;;;;;;14.73;2.85;;;11.40;99.90;;;;;;4965678;28;20050;-70
2022/05/27 03:07:34;;;;;;;13.05;2.90;;;11.30;99.90;;;;;;4961601;28;20092;-71
2022/05/27 03:10:15;;;;;;;15.77;3.13;;;11.40;99.90;;;;;;4964932;28;20043;-71
2022/05/27 03:13:11;;;;;;;14.27;2.70;;;11.20;99.90;;;;;;4962544;28;20133;-71
2022/05/27 03:15:59;;;;;;;20.42;3.20;;;11.10;99.90;;;;;;4962986;28;20078;-71
2022/05/27 03:18:47;;;;;;;18.98;3.10;;;11.10;99.90;;;;;;4979208;28;20042;-71
2022/05/27 03:21:22;;;;;;;13.65;2.70;;;11.10;99.90;;;;;;4965170;28;20222;-71
2022/05/27 03:24:15;;;;;;;17.67;3.13;;;11.00;99.90;;;;;;4950364;28;20451;-74
2022/05/27 03:27:18;;;;;;;21.52;3.08;;;11.00;99.90;;;;;;4965849;28;20062;-71
2022/05/27 03:29:56;;;;;;;17.75;2.80;;;11.00;99.90;;;;;;4983086;28;20051;-70
2022/05/27 03:32:35;;;;;;;15.48;2.65;;;10.90;99.90;;;;;;4965756;28;20520;-70
2022/05/27 03:35:14;;;;;;;15.70;2.90;;;11.00;99.90;;;;;;4961989;28;20047;-70
2022/05/27 03:37:55;;;;;;;22.15;3.45;;;11.00;99.90;;;;;;4959651;28;20507;-70
2022/05/27 03:40:26;;;;;;;8.55;2.55;;;10.90;99.90;;;;;;4965774;28;20053;-71
2022/05/27 03:42:53;;;;;;;12.35;2.35;;;10.90;99.90;;;;;;4966573;28;20050;-70
2022/05/27 03:45:21;;;;;;;13.20;3.05;;;10.90;99.90;;;;;;4960385;28;20252;-70
2022/05/27 03:47:47;;;;;;;23.42;3.47;;;11.00;99.90;;;;;;4963574;28;20085;-70
2022/05/27 03:50:16;;;;;;;11.15;2.53;;;10.90;99.90;;;;;;4947214;28;20046;-71
2022/05/27 03:52:44;;;;;;;14.20;2.90;;;11.00;99.90;;;;;;4965820;28;20420;-70
2022/05/27 03:55:14;;;;;;;14.80;2.20;;;11.00;99.90;;;;;;4961756;28;20077;-70
2022/05/27 03:57:40;;;;;;;13.00;2.58;;;11.00;99.90;;;;;;4964400;28;20089;-70
2022/05/27 04:00:07;;;;;;;16.13;3.20;;;11.10;99.90;;;;;;4965215;28;20043;-70
2022/05/27 04:02:33;;;;;;;18.92;3.22;;;11.10;99.90;;;;;;4966480;28;20043;-70
2022/05/27 04:04:59;;;;;;;12.23;2.30;;;11.20;99.90;;;;;;4960999;28;20117;-70
2022/05/27 04:07:25;;;;;;;13.68;3.13;;;11.30;99.90;;;;;;4964393;28;20166;-70
2022/05/27 04:09:51;;;;;;;10.93;2.50;;;11.30;99.90;;;;;;4966933;28;20528;-70
2022/05/27 04:12:16;;;;;;;17.27;2.83;;;11.40;99.90;;;;;;4945736;28;20042;-71
2022/05/27 04:14:42;;;;;;;12.50;2.90;;;11.40;99.90;;;;;;4966016;28;20038;-70
2022/05/27 04:19:52;;;;;;;16.42;2.83;;;11.50;99.90;;;;;;4961782;28;20108;-71
2022/05/27 04:22:18;;;;;;;18.85;3.67;;;11.50;99.90;;;;;;4965302;28;20081;-71
2022/05/27 04:24:43;;;;;;;14.23;3.35;;;11.50;99.90;;;;;;4962398;28;20051;-71
2022/05/27 04:27:12;;;;;;;14.50;2.72;;;11.60;99.90;;;;;;4965119;28;20050;-71
2022/05/27 04:29:43;;;;;;;20.73;4.68;;;11.70;99.90;;;;;;4965202;28;20125;-71
2022/05/27 04:32:09;;;;;;;16.88;2.97;;;12.20;99.90;;;;;;4947162;28;20100;-71
2022/05/27 04:34:35;;;;;;;17.08;3.05;;;13.20;99.90;;;;;;4965503;28;20035;-71
2022/05/27 04:37:01;;;;;;;21.42;2.88;;;13.80;99.90;;;;;;4962307;28;20046;-71
2022/05/27 04:39:27;;;;;;;16.67;2.97;;;14.90;99.90;;;;;;4962981;28;20114;-71
2022/05/27 04:41:53;;;;;;;12.88;3.40;;;15.70;99.90;;;;;;4964318;28;20173;-70
2022/05/27 04:44:19;;;;;;;16.48;2.45;;;16.40;99.90;;;;;;4961702;28;20070;-71
2022/05/27 04:46:45;;;;;;;18.38;2.45;;;16.50;99.90;;;;;;4946506;28;20058;-71
2022/05/27 04:51:59;;;;;;;19.73;3.08;;;15.80;99.90;;;;;;4968985;28;20411;-71
2022/05/27 04:54:25;;;;;;;15.48;3.00;;;15.20;99.90;;;;;;4961560;28;20106;-71
2022/05/27 04:56:52;;;;;;;13.40;2.92;;;14.70;99.90;;;;;;4966310;28;20049;-71
2022/05/27 04:59:18;;;;;;;18.77;3.25;;;14.30;99.90;;;;;;4949899;28;20070;-71
2022/05/27 05:01:43;;;;;;;13.38;2.63;;;13.90;99.90;;;;;;4964457;28;20460;-71
2022/05/27 05:04:09;;;;;;;16.75;3.63;;;13.70;99.90;;;;;;4965842;28;20053;-71
2022/05/27 05:06:35;;;;;;;17.80;3.63;;;13.50;99.90;;;;;;4965622;28;20591;-71
2022/05/27 05:09:01;;;;;;;15.18;3.20;;;13.30;99.90;;;;;;4966327;28;20047;-71
2022/05/27 05:11:26;;;;;;;12.02;2.45;;;13.20;99.90;;;;;;4978368;28;20081;-70
2022/05/27 05:13:52;;;;;;;15.55;3.00;;;13.00;99.90;;;;;;4974530;28;20062;-71
2022/05/27 05:16:18;;;;;;;15.70;2.70;;;12.80;99.90;;;;;;4942652;28;20039;-71
2022/05/27 05:18:43;;;;;;;15.38;3.22;;;12.70;99.90;;;;;;4944190;28;20039;-71
2022/05/27 05:21:09;;;;;;;13.38;2.65;;;12.50;99.90;;;;;;4962542;28;20047;-70
2022/05/27 05:23:35;;;;;;;14.43;3.42;;;12.50;99.90;;;;;;4964188;28;20039;-71
2022/05/27 05:26:00;;;;;;;14.32;2.72;;;12.50;99.90;;;;;;4958866;28;20054;-71
2022/05/27 05:28:26;;;;;;;19.23;2.60;;;12.60;99.90;;;;;;4963395;28;20062;-70
2022/05/27 05:30:52;;;;;;;16.70;3.45;;;12.80;99.90;;;;;;4958718;28;20066;-70
2022/05/27 05:33:18;;;;;;;17.75;3.40;;;12.90;99.90;;;;;;4959980;28;20058;-70
2022/05/27 05:35:44;;;;;;;16.88;2.90;;;13.00;99.90;;;;;;4958648;28;20047;-71
2022/05/27 05:38:09;;;;;;;18.17;2.83;;;13.00;99.90;;;;;;4962698;28;20133;-71
2022/05/27 05:40:36;;;;;;;21.00;3.40;;;13.00;99.90;;;;;;4962502;28;20047;-70
2022/05/27 05:43:02;;;;;;;20.05;3.55;;;13.10;99.90;;;;;;4966957;28;20067;-70
2022/05/27 05:45:28;;;;;;;14.93;2.95;;;13.10;99.90;;;;;;4965289;28;20057;-70
2022/05/27 05:47:54;;;;;;;18.60;4.15;;;13.20;99.90;;;;;;4966763;28;20050;-72
2022/05/27 05:50:20;;;;;;;13.98;3.15;;;13.20;99.90;;;;;;4967131;28;20050;-71
2022/05/27 05:52:46;;;;;;;16.67;2.97;;;13.30;99.90;;;;;;4966935;28;20047;-71
2022/05/27 05:55:13;;;;;;;20.45;3.53;;;13.50;99.90;;;;;;4964197;28;20184;-70
2022/05/27 05:57:44;;;;;;;13.90;2.70;;;13.60;99.90;;;;;;4964301;28;20046;-71
2022/05/27 06:00:12;;;;;;;23.38;3.65;;;13.60;99.90;;;;;;4947636;28;20050;-71
2022/05/27 06:02:38;;;;;;;18.00;3.42;;;13.70;99.90;;;;;;4965916;28;20141;-69
2022/05/27 06:05:05;;;;;;;12.93;3.03;;;13.70;99.90;;;;;;4951088;28;20500;-70
2022/05/27 06:07:31;;;;;;;18.50;3.63;;;13.80;99.90;;;;;;4966254;28;20459;-69
2022/05/27 06:09:58;;;;;;;18.90;3.42;;;13.80;99.90;;;;;;4959722;28;20053;-69
2022/05/27 06:12:24;;;;;;;20.23;3.05;;;13.70;99.90;;;;;;4960051;28;20113;-69
2022/05/27 06:14:56;;;;;;;15.77;2.63;;;13.70;99.90;;;;;;4960866;28;20058;-70
2022/05/27 06:17:24;;;;;;;20.38;3.70;;;13.70;99.90;;;;;;4967760;28;20537;-68
2022/05/27 06:19:50;;;;;;;18.02;2.97;;;14.20;99.90;;;;;;4965422;28;20082;-70
2022/05/27 06:22:16;;;;;;;19.30;4.65;;;14.20;99.90;;;;;;4966405;28;20094;-70
2022/05/27 06:24:41;;;;;;;18.48;3.75;;;14.10;99.90;;;;;;4946143;28;20109;-70
2022/05/27 06:27:07;;;;;;;16.08;3.10;;;14.10;99.90;;;;;;4961698;28;20715;-70
2022/05/27 06:35:03;;;;;;;15.50;3.00;;;14.60;99.90;;;;;;4965975;28;20101;-69
2022/05/27 06:37:28;;;;;;;20.05;3.92;;;14.30;99.90;;;;;;4965449;28;20100;-69
2022/05/27 06:39:54;;;;;;;13.25;3.20;;;14.10;99.90;;;;;;4947921;28;20046;-70
2022/05/27 06:42:22;;;;;;;19.25;3.45;;;14.00;99.90;;;;;;4963088;28;20061;-69
2022/05/27 06:44:48;;;;;;;18.27;3.13;;;14.00;99.90;;;;;;4947985;28;20061;-70
2022/05/27 06:47:14;;;;;;;18.52;3.00;;;14.00;99.90;;;;;;4959810;28;20078;-70
2022/05/27 06:49:44;;;;;;;14.30;3.38;;;13.90;99.90;;;;;;4981204;28;20729;-70
2022/05/27 06:52:10;;;;;;;17.33;3.55;;;14.00;99.90;;;;;;4947191;28;20048;-71
2022/05/27 06:54:37;;;;;;;18.55;3.30;;;14.00;99.90;;;;;;4965523;28;20050;-70
2022/05/27 06:57:05;;;;;;;20.20;3.88;;;13.90;99.90;;;;;;4948237;28;20428;-72
2022/05/27 06:59:32;;;;;;;15.57;3.53;;;13.90;99.90;;;;;;4964356;28;20082;-70
2022/05/27 07:01:58;;;;;;;19.02;3.55;;;13.90;99.90;;;;;;4964077;28;20050;-70
2022/05/27 07:04:23;;;;;;;18.88;3.83;;;14.00;99.90;;;;;;4965903;28;20047;-70
2022/05/27 07:06:49;;;;;;;18.80;3.53;;;13.90;99.90;;;;;;4966254;28;20053;-71
2022/05/27 07:09:21;;;;;;;19.33;3.40;;;13.90;99.90;;;;;;4961038;28;20043;-70
2022/05/27 07:11:49;;;;;;;17.27;2.90;;;13.90;99.90;;;;;;4963045;28;20039;-70
2022/05/27 07:14:17;;;;;;;16.35;3.47;;;13.90;99.90;;;;;;4947063;28;20042;-71
2022/05/27 07:16:45;;;;;;;22.30;3.05;;;14.10;99.90;;;;;;4963076;28;20047;-71
2022/05/27 07:19:11;;;;;;;16.63;3.65;;;14.30;99.90;;;;;;4965549;28;20408;-70
2022/05/27 07:21:39;;;;;;;13.77;2.85;;;14.70;99.90;;;;;;4965460;28;20131;-71
2022/05/27 07:24:09;;;;;;;17.38;3.72;;;15.00;99.90;;;;;;4963418;28;20061;-70
2022/05/27 07:26:37;;;;;;;16.10;3.42;;;15.80;99.90;;;;;;4959924;28;20047;-72
2022/05/27 07:29:03;;;;;;;15.00;3.88;;;16.40;99.90;;;;;;4962622;28;21000;-70
2022/05/27 07:31:29;;;;;;;16.10;3.30;;;16.70;99.90;;;;;;4963567;28;20121;-72
2022/05/27 07:33:56;;;;;;;21.75;3.85;;;16.60;99.90;;;;;;4963012;28;20074;-71
2022/05/27 07:36:22;;;;;;;16.85;3.83;;;16.60;99.90;;;;;;4960265;28;20459;-71
2022/05/27 07:38:52;;;;;;;12.00;2.75;;;16.70;99.90;;;;;;4946490;28;20053;-71
2022/05/27 07:41:20;;;;;;;14.80;3.22;;;16.80;99.90;;;;;;4961378;28;20404;-72
2022/05/27 07:43:46;;;;;;;17.38;3.13;;;17.00;99.90;;;;;;4962505;28;20076;-72
2022/05/27 07:46:13;;;;;;;15.43;2.83;;;17.20;99.90;;;;;;4962040;28;20435;-71
2022/05/27 07:48:39;;;;;;;20.92;3.90;;;17.30;99.90;;;;;;4964883;28;20047;-70
2022/05/27 07:51:05;;;;;;;18.88;3.97;;;17.20;99.90;;;;;;4947317;28;20043;-71
2022/05/27 07:53:32;;;;;;;15.18;4.28;;;17.10;99.90;;;;;;4949087;28;20142;-70
2022/05/27 07:55:58;;;;;;;17.00;3.53;;;17.30;99.90;;;;;;4961676;28;20047;-71
2022/05/27 07:58:24;;;;;;;16.70;3.00;;;17.40;99.90;;;;;;4948038;28;20072;-71
2022/05/27 08:00:49;;;;;;;19.30;3.75;;;17.20;99.90;;;;;;4945894;28;20078;-70
2022/05/27 08:03:18;;;;;;;16.08;4.07;;;16.70;99.90;;;;;;4979058;28;20089;-70
2022/05/27 08:05:44;;;;;;;15.77;3.42;;;16.50;99.90;;;;;;4964369;28;20074;-70
2022/05/27 08:08:10;;;;;;;17.08;3.95;;;16.50;99.90;;;;;;4963785;28;20043;-70
2022/05/27 08:10:37;;;;;;;19.77;3.60;;;16.20;99.90;;;;;;4962719;28;20038;-71
2022/05/27 08:13:03;;;;;;;19.73;3.50;;;16.00;99.90;;;;;;4978463;28;20074;-70
2022/05/27 08:15:29;;;;;;;18.38;3.35;;;15.80;99.90;;;;;;4963490;28;20046;-70
2022/05/27 08:17:56;;;;;;;18.85;3.15;;;16.10;99.90;;;;;;4976550;28;20105;-71
2022/05/27 08:20:25;;;;;;;21.65;3.30;;;16.50;99.90;;;;;;4946973;28;20038;-71
2022/05/27 08:22:53;;;;;;;16.63;2.90;;;17.00;99.90;;;;;;4963950;28;20078;-71
2022/05/27 08:25:23;;;;;;;16.88;4.30;;;17.40;99.90;;;;;;4962526;28;20120;-70
2022/05/27 08:27:49;;;;;;;15.20;2.67;;;17.60;99.90;;;;;;4961394;28;20046;-70
2022/05/27 08:30:20;;;;;;;16.33;3.72;;;17.50;99.90;;;;;;4963374;28;20078;-70
2022/05/27 08:32:47;;;;;;;14.80;3.67;;;17.20;99.90;;;;;;4959011;28;20051;-71
2022/05/27 08:38:09;;;;;;;15.48;4.20;;;17.00;99.90;;;;;;4978116;28;20061;-71
2022/05/27 08:40:44;;;;;;;18.40;5.22;;;17.20;99.90;;;;;;4962367;28;20050;-70
2022/05/27 08:43:19;;;;;;;20.13;5.50;;;17.40;99.90;;;;;;4963640;28;20065;-70
2022/05/27 08:46:03;;;;;;;18.52;4.18;;;17.30;99.90;;;;;;4961096;28;20047;-71
2022/05/27 08:48:33;;;;;;;16.52;3.90;;;17.00;99.90;;;;;;4964794;28;20064;-70
2022/05/27 08:51:18;;;;;;;14.27;3.17;;;17.20;99.90;;;;;;4963385;28;20043;-70
2022/05/27 08:53:52;;;;;;;24.15;3.92;;;17.30;99.90;;;;;;4961692;28;20054;-72
2022/05/27 08:59:40;;;;;;;16.02;3.10;;;17.20;99.90;;;;;;4978424;28;20098;-72
2022/05/27 09:02:33;;;;;;;14.18;3.40;;;16.80;99.90;;;;;;4961057;28;20051;-70
2022/05/27 09:05:15;;;;;;;19.20;3.63;;;16.50;99.90;;;;;;4966003;28;20054;-70
2022/05/27 09:07:58;;;;;;;20.42;3.55;;;16.30;99.90;;;;;;4956629;28;20085;-71
2022/05/27 09:10:43;;;;;;;15.75;3.60;;;16.20;99.90;;;;;;4978704;28;20042;-71
2022/05/27 09:13:24;;;;;;;20.17;3.65;;;16.60;99.90;;;;;;4964133;28;20125;-70
2022/05/27 09:16:16;;;;;;;18.40;4.43;;;16.80;99.90;;;;;;4963980;28;20046;-71
2022/05/27 09:19:17;;;;;;;17.63;3.63;;;17.10;99.90;;;;;;4978197;28;20156;-72
2022/05/27 09:22:01;;;;;;;17.85;3.00;;;17.20;99.90;;;;;;4961615;28;20067;-70
2022/05/27 09:24:54;;;;;;;18.98;3.75;;;17.20;99.90;;;;;;4963157;28;20082;-71
2022/05/27 09:27:22;;;;;;;13.80;3.38;;;17.50;99.90;;;;;;4960416;28;20058;-69
2022/05/27 09:29:54;;;;;;;15.52;3.50;;;17.90;99.90;;;;;;4975443;28;20070;-71
2022/05/27 09:32:40;;;;;;;19.25;4.82;;;18.20;99.90;;;;;;4965961;28;20047;-71
2022/05/27 09:35:37;;;;;;;15.25;4.05;;;18.40;99.90;;;;;;4961863;28;20397;-71
2022/05/27 09:38:06;;;;;;;20.52;4.50;;;18.10;99.90;;;;;;4961655;28;20436;-71
2022/05/27 09:40:49;;;;;;;23.33;7.60;;;18.00;99.90;;;;;;4961028;28;20034;-71
2022/05/27 09:43:30;;;;;;;17.27;4.28;;;18.10;99.90;;;;;;4959884;28;20132;-71
2022/05/27 09:46:00;;;;;;;17.92;6.15;;;18.40;99.90;;;;;;4958875;28;20093;-71
2022/05/27 09:48:27;;;;;;;14.38;3.53;;;18.50;99.90;;;;;;4976405;28;20050;-71
2022/05/27 09:50:57;;;;;;;12.57;3.28;;;18.40;99.90;;;;;;4962120;28;20078;-71
2022/05/27 09:53:31;;;;;;;17.52;3.35;;;18.60;99.90;;;;;;4963087;28;20109;-67
2022/05/27 09:56:04;;;;;;;14.55;3.75;;;18.50;99.90;;;;;;4962460;28;20074;-70
2022/05/27 09:58:36;;;;;;;15.20;3.45;;;18.70;99.90;;;;;;4963839;28;20317;-69
2022/05/27 10:01:23;;;;;;;17.10;3.42;;;18.90;99.20;;;;;;4942766;28;20047;-70
2022/05/27 10:04:06;;;;;;;16.48;3.33;;;18.80;98.80;;;;;;4961889;28;20145;-70
2022/05/27 10:06:34;;;;;;;16.40;3.53;;;18.60;98.00;;;;;;4962451;28;20126;-71
2022/05/27 10:09:06;;;;;;;14.35;3.33;;;18.50;99.60;;;;;;4962951;28;20289;-69
2022/05/27 10:11:50;;;;;;;16.58;3.53;;;18.40;99.20;;;;;;4956799;28;20054;-70
2022/05/27 10:14:31;;;;;;;16.13;3.33;;;17.90;99.90;;;;;;4973881;28;20051;-70
2022/05/27 10:17:20;;;;;;;18.85;3.53;;;17.50;99.90;;;;;;4973807;28;20646;-71
2022/05/27 10:19:47;;;;;;;19.00;4.07;;;17.10;99.90;;;;;;4958471;28;20401;-70
2022/05/27 10:22:26;;;;;;;18.90;3.00;;;16.90;99.90;;;;;;4947382;28;21375;-69
2022/05/27 10:25:09;;;;;;;19.42;4.82;;;16.90;99.90;;;;;;4963053;28;20046;-70
2022/05/27 10:27:50;;;;;;;23.08;6.60;;;16.70;99.90;;;;;;4961449;28;20051;-69
2022/05/27 10:30:27;;;;;;;25.00;7.55;;;16.80;99.90;;;;;;4959249;28;20534;-70
2022/05/27 10:32:54;;;;;;;22.85;7.00;;;16.70;99.90;;;;;;4962564;28;20503;-70
2022/05/27 10:35:30;;;;;;;24.60;5.72;;;16.80;99.90;;;;;;4959426;28;20565;-71
2022/05/27 10:38:23;;;;;;;24.77;9.70;;;17.00;99.90;;;;;;4992823;28;20103;-69
2022/05/27 10:41:02;;;;;;;20.48;7.22;;;17.50;99.90;;;;;;4960830;28;20055;-71
2022/05/27 10:43:33;;;;;;;17.48;3.88;;;18.00;99.90;;;;;;4964244;28;20039;-70
2022/05/27 10:46:03;;;;;;;;;;;17.90;99.90;;;;;;4966040;28;20263;-70
2022/05/27 10:48:43;;;;;;;14.23;3.25;;;17.90;99.90;;;;;;4964454;28;19977;-70
2022/05/27 10:51:30;;;;;;;18.23;3.10;;;17.90;99.90;;;;;;4965127;28;20037;-69
2022/05/27 10:54:07;;;;;;;17.73;4.28;;;17.60;99.90;;;;;;4965649;28;20043;-70
2022/05/27 11:03:22;;;;;;;21.13;3.85;;;16.80;99.90;;;;;;4962418;28;21311;-70
2022/05/27 11:06:12;;;;;;;19.05;3.53;;;16.90;99.90;;;;;;4960670;28;20047;-70
2022/05/27 11:08:58;;;;;;;17.77;3.72;;;16.70;99.90;;;;;;4962866;28;20046;-72
2022/05/27 11:12:02;;;;;;;16.55;3.40;;;16.40;99.90;;;;;;4962735;28;20090;-72
2022/05/27 11:17:35;;;;;;;18.80;3.03;;;16.40;99.90;;;;;;4977502;28;20678;-71
2022/05/27 11:20:28;;;;;;;13.93;3.30;;;16.50;99.90;;;;;;4961383;28;20061;-71
2022/05/27 11:23:04;;;;;;;16.42;2.90;;;16.50;99.90;;;;;;4964904;28;20045;-73
2022/05/27 11:25:42;;;;;;;20.30;3.50;;;16.20;99.90;;;;;;4961804;28;20063;-70
2022/05/27 11:28:26;;;;;;;14.15;3.15;;;16.20;99.90;;;;;;4963853;28;20050;-70
2022/05/27 11:31:14;;;;;;;15.18;3.25;;;16.30;99.90;;;;;;4954456;28;20058;-69
2022/05/27 11:33:48;;;;;;;14.38;3.42;;;16.40;99.90;;;;;;4958383;28;20050;-71
2022/05/27 11:36:38;;;;;;;17.92;3.58;;;16.20;99.90;;;;;;4959649;28;20066;-70
2022/05/27 11:39:38;;;;;;;17.83;3.63;;;16.10;99.90;;;;;;4962884;28;20042;-71
2022/05/27 11:42:38;;;;;;;18.55;3.50;;;16.00;99.90;;;;;;4961787;28;20042;-71
2022/05/27 11:45:10;;;;;;;19.25;3.65;;;15.90;99.90;;;;;;4960141;28;20497;-72
2022/05/27 11:47:52;;;;;;;18.80;3.58;;;15.80;99.90;;;;;;4977448;28;20767;-70
2022/05/27 11:50:53;;;;;;;16.42;3.00;;;15.70;99.90;;;;;;4959575;28;20530;-71
2022/05/27 11:53:46;;;;;;;17.90;3.50;;;15.70;99.90;;;;;;4944716;28;20400;-72
2022/05/27 11:56:30;;;;;;;17.42;3.15;;;15.70;99.90;;;;;;4961476;28;20039;-71
2022/05/27 11:59:18;;;;;;;18.65;2.88;;;15.60;99.90;;;;;;4976728;28;20065;-71
2022/05/27 12:01:49;;;;;;;20.63;3.28;;;15.50;99.90;;;;;;4955561;28;20078;-71
2022/05/27 12:04:33;;;;;;;14.93;3.08;;;15.30;99.90;;;;;;4963197;28;20055;-73
2022/05/27 12:07:06;;;;;;;19.30;3.35;;;15.50;99.90;;;;;;4977874;28;20117;-71
2022/05/27 12:09:44;;;;;;;20.23;3.78;;;15.60;99.90;;;;;;4959411;28;20066;-71
2022/05/27 12:12:46;;;;;;;15.60;3.33;;;15.60;99.90;;;;;;4942376;28;20193;-71
2022/05/27 12:15:39;;;;;;;18.23;3.30;;;15.60;99.90;;;;;;4954958;28;20042;-72
2022/05/27 12:18:23;;;;;;;16.58;3.42;;;15.60;99.90;;;;;;4943717;28;20046;-72
2022/05/27 12:20:49;;;;;;;16.98;3.53;;;15.50;99.90;;;;;;4960499;28;20054;-71
2022/05/27 12:23:18;;;;;;;16.95;3.45;;;15.70;99.90;;;;;;4964842;28;20104;-69
2022/05/27 12:25:48;;;;;;;16.52;3.10;;;15.90;99.90;;;;;;4959742;28;20157;-72
2022/05/27 12:28:21;;;;;;;20.60;3.63;;;15.90;99.90;;;;;;4962346;28;20046;-69
2022/05/27 12:30:48;;;;;;;19.08;3.80;;;15.90;99.90;;;;;;4961900;28;20054;-70
2022/05/27 12:33:19;;;;;;;17.08;2.55;;;15.90;99.90;;;;;;4963591;28;20047;-70
2022/05/27 12:35:50;;;;;;;16.00;3.25;;;16.20;99.90;;;;;;4963025;28;20408;-69
2022/05/27 12:38:24;;;;;;;20.23;4.10;;;16.40;99.90;;;;;;4957933;28;20050;-69
2022/05/27 12:40:58;;;;;;;23.88;4.03;;;16.60;99.90;;;;;;4962563;28;20460;-72
2022/05/27 12:43:26;;;;;;;13.57;3.72;;;16.50;99.90;;;;;;4962959;28;20046;-71
2022/05/27 12:46:00;;;;;;;15.52;3.65;;;16.30;99.90;;;;;;4962192;28;20721;-71
2022/05/27 12:48:32;;;;;;;21.58;4.53;;;16.10;99.90;;;;;;4977026;28;20039;-70
2022/05/27 12:51:06;;;;;;;18.70;2.88;;;16.00;99.90;;;;;;4977964;28;20527;-71
2022/05/27 12:53:37;;;;;;;14.50;3.20;;;15.90;99.90;;;;;;4957487;28;20046;-71
2022/05/27 13:02:14;;;;;;;17.52;2.95;;;15.90;99.90;;;;;;4961242;28;20058;-69
2022/05/27 13:04:47;;;;;;;18.48;4.20;;;16.00;99.90;;;;;;4961133;28;20051;-71
2022/05/27 13:07:16;;;;;;;21.25;3.40;;;15.90;99.90;;;;;;4957743;28;20125;-71
2022/05/27 13:09:44;;;;;;;16.55;3.08;;;15.90;99.90;;;;;;4958314;28;20074;-71
2022/05/27 13:12:30;;;;;;;17.55;3.20;;;15.90;99.90;;;;;;4961989;28;20805;-71
2022/05/27 13:15:06;;;;;;;21.40;3.58;;;16.20;99.90;;;;;;4960274;28;20065;-71
2022/05/27 13:17:42;;;;;;;19.35;3.72;;;16.30;99.90;;;;;;4959589;28;20078;-70
2022/05/27 13:20:19;;;;;;;21.08;3.95;;;16.20;99.90;;;;;;4959597;28;20043;-70
2022/05/27 13:23:00;;;;;;;14.43;2.85;;;16.20;99.90;;;;;;4976841;28;20101;-70
2022/05/27 13:25:34;;;;;;;19.20;4.00;;;16.30;99.90;;;;;;4959976;28;20102;-68
2022/05/27 13:28:09;;;;;;;13.93;2.80;;;16.30;99.90;;;;;;4970327;28;20051;-71
2022/05/27 13:30:52;;;;;;;15.73;3.00;;;16.40;99.90;;;;;;4959127;28;20524;-71
2022/05/27 13:33:50;;;;;;;17.10;3.90;;;16.30;99.90;;;;;;4968161;28;20047;-70
2022/05/27 13:36:24;;;;;;;18.88;3.83;;;16.20;99.90;;;;;;4958090;28;20070;-72
2022/05/27 13:39:02;;;;;;;17.80;3.35;;;16.20;99.90;;;;;;4961808;28;20129;-71
2022/05/27 13:41:37;;;;;;;18.23;3.47;;;16.00;99.90;;;;;;4980489;28;20051;-70
2022/05/27 13:44:03;;;;;;;18.52;3.03;;;15.80;99.90;;;;;;4961698;28;20771;-70
2022/05/27 13:46:38;;;;;;;14.82;3.13;;;15.70;99.90;;;;;;4962112;28;20051;-71
2022/05/27 13:49:11;;;;;;;19.20;3.60;;;15.60;99.90;;;;;;4963595;28;20062;-71